Time;durP1;ratioP1;P1;durP2;ratioP2;P2;SDS_P1;SDS_P2;PMS_P1;PMS_P2;Temp;Humidity;BMP_temperature;BMP_pressure;BME280_temperature;BME280_humidity;BME280_pressure;Samples;Min_cycle;Max_cycle;Signal;HPM_P1;HPM_P2
2024/01/25 00:00:20;;;;;;;5.53;1.80;;;;;;;4.90;100.00;101369.38;5066656;28;20048;-70
2024/01/25 00:02:47;;;;;;;5.00;1.70;;;;;;;4.97;100.00;101385.78;5077197;28;20079;-70
2024/01/25 00:05:14;;;;;;;7.85;1.90;;;;;;;4.91;100.00;101393.63;5071174;28;20052;-70
2024/01/25 00:07:50;;;;;;;7.85;2.00;;;;;;;4.96;100.00;101397.06;5076056;28;20063;-70
2024/01/25 00:10:18;;;;;;;7.55;2.58;;;;;;;4.89;100.00;101372.00;5067527;28;20045;-70
2024/01/25 00:12:45;;;;;;;7.78;1.50;;;;;;;5.01;100.00;101397.91;5069707;28;20055;-70
2024/01/25 00:15:12;;;;;;;4.70;1.40;;;;;;;4.94;100.00;101402.25;5070208;28;20079;-70
2024/01/25 00:17:39;;;;;;;4.78;1.58;;;;;;;4.87;100.00;101391.88;5057361;28;20053;-70
2024/01/25 00:20:09;;;;;;;4.85;1.38;;;;;;;4.93;100.00;101399.66;5072641;28;20059;-70
2024/01/25 00:22:38;;;;;;;8.38;1.60;;;;;;;4.85;100.00;101394.50;5075111;28;20057;-70
2024/01/25 00:25:05;;;;;;;6.35;2.00;;;;;;;4.80;100.00;101380.69;5067253;28;20059;-70
2024/01/25 00:27:32;;;;;;;12.20;2.30;;;;;;;4.78;100.00;101379.84;5052992;28;20149;-70
2024/01/25 00:29:59;;;;;;;7.57;1.92;;;;;;;4.79;100.00;101368.56;5075596;28;20099;-71
2024/01/25 00:32:25;;;;;;;8.50;1.70;;;;;;;4.89;100.00;101384.97;5086718;28;20051;-70
2024/01/25 00:34:52;;;;;;;3.92;1.35;;;;;;;4.79;100.00;101367.72;5090337;28;20059;-70
2024/01/25 00:37:20;;;;;;;5.75;1.50;;;;;;;4.78;100.00;101391.91;5082992;28;20071;-70
2024/01/25 00:39:49;;;;;;;7.25;1.70;;;;;;;4.65;100.00;101371.19;5061748;28;20049;-70
2024/01/25 00:42:16;;;;;;;6.88;1.50;;;;;;;4.74;100.00;101381.53;5074975;28;20135;-70
2024/01/25 00:44:42;;;;;;;7.45;1.98;;;;;;;4.72;100.00;101385.88;5080271;28;20110;-70
2024/01/25 00:47:10;;;;;;;4.32;1.52;;;;;;;4.73;100.00;101387.63;5076139;28;20056;-70
2024/01/25 00:49:37;;;;;;;7.68;1.98;;;;;;;4.67;100.00;101390.22;5062060;28;20059;-70
2024/01/25 00:52:05;;;;;;;6.53;2.20;;;;;;;4.56;100.00;101368.66;5069791;28;20417;-70
2024/01/25 00:54:32;;;;;;;9.38;2.10;;;;;;;4.61;100.00;101392.84;5078145;28;20053;-71
2024/01/25 00:56:59;;;;;;;5.95;1.63;;;;;;;4.58;100.00;101390.25;5065401;28;20048;-70
2024/01/25 00:59:26;;;;;;;5.43;1.55;;;;;;;4.46;100.00;101391.16;5077928;28;20056;-71
2024/01/25 01:01:54;;;;;;;10.63;1.58;;;;;;;4.60;100.00;101387.66;5087018;28;20052;-70
2024/01/25 01:04:22;;;;;;;8.07;1.80;;;;;;;4.58;100.00;101390.25;5085344;28;20051;-71
2024/01/25 01:06:49;;;;;;;6.53;2.42;;;;;;;4.55;100.00;101377.28;5060581;28;20044;-71
2024/01/25 01:09:17;;;;;;;11.55;1.70;;;;;;;4.57;100.00;101368.66;5081718;28;20052;-71
2024/01/25 01:11:44;;;;;;;5.82;1.83;;;;;;;4.62;100.00;101376.44;5069009;28;20498;-71
2024/01/25 01:14:11;;;;;;;7.15;1.67;;;;;;;4.72;100.00;101366.88;5073842;28;20055;-71
2024/01/25 01:16:37;;;;;;;7.72;1.92;;;;;;;4.68;100.00;101363.41;5065905;28;20053;-70
2024/01/25 01:19:07;;;;;;;10.60;1.83;;;;;;;4.69;100.00;101352.19;5085065;28;20050;-71
2024/01/25 01:21:35;;;;;;;7.10;1.90;;;;;;;4.84;100.00;101353.84;5059094;28;20060;-71
2024/01/25 01:24:02;;;;;;;8.10;1.80;;;;;;;4.76;100.00;101358.19;5080297;28;20044;-71
2024/01/25 01:26:29;;;;;;;7.82;1.70;;;;;;;4.82;100.00;101376.34;5059184;28;20546;-71
2024/01/25 01:28:56;;;;;;;11.15;1.83;;;;;;;4.73;100.00;101368.59;5060559;28;20044;-70
2024/01/25 01:31:22;;;;;;;10.30;2.25;;;;;;;4.76;100.00;101365.97;5075706;28;20072;-70
2024/01/25 01:33:49;;;;;;;7.72;1.98;;;;;;;4.79;100.00;101378.94;5068050;28;20048;-70
2024/01/25 01:36:16;;;;;;;6.85;1.50;;;;;;;4.82;100.00;101367.72;5073498;28;20102;-70
2024/01/25 01:38:43;;;;;;;5.20;1.58;;;;;;;4.83;100.00;101377.22;5073548;28;20048;-70
2024/01/25 01:41:13;;;;;;;9.60;1.77;;;;;;;4.88;100.00;101383.25;5063735;28;20044;-70
2024/01/25 01:43:40;;;;;;;9.35;2.25;;;;;;;4.83;100.00;101370.28;5082207;28;20052;-70
2024/01/25 01:46:11;;;;;;;7.00;2.13;;;;;;;4.92;100.00;101395.31;5065848;28;20066;-70
2024/01/25 01:48:41;;;;;;;6.85;2.03;;;;;;;4.83;100.00;101401.41;5061143;28;20049;-70
2024/01/25 01:51:09;;;;;;;8.57;2.42;;;;;;;4.80;100.00;101392.78;5069720;28;20135;-70
2024/01/25 01:53:36;;;;;;;5.03;1.50;;;;;;;4.79;100.00;101386.72;5077996;28;20088;-70
2024/01/25 01:56:04;;;;;;;4.78;1.73;;;;;;;4.71;100.00;101378.09;5057766;28;20052;-70
2024/01/25 01:58:31;;;;;;;6.68;1.60;;;;;;;4.77;100.00;101410.97;5072163;28;20060;-70
2024/01/25 02:00:59;;;;;;;6.78;1.80;;;;;;;4.73;100.00;101407.53;5068916;28;20511;-70
2024/01/25 02:03:26;;;;;;;9.88;1.88;;;;;;;4.82;100.00;101419.59;5074374;28;20501;-70
2024/01/25 02:05:54;;;;;;;9.60;2.75;;;;;;;4.76;100.00;101412.69;5061011;28;20049;-70
2024/01/25 02:08:21;;;;;;;6.95;2.63;;;;;;;4.81;100.00;101410.94;5066878;28;20413;-70
2024/01/25 02:10:48;;;;;;;6.25;1.45;;;;;;;4.80;100.00;101395.38;5074911;28;20056;-70
2024/01/25 02:13:15;;;;;;;5.65;1.65;;;;;;;4.82;100.00;101391.91;5081020;28;20052;-71
2024/01/25 02:15:43;;;;;;;5.55;1.80;;;;;;;4.87;100.00;101397.97;5065449;28;20044;-71
2024/01/25 02:18:10;;;;;;;8.88;1.92;;;;;;;4.83;100.00;101397.97;5070953;28;20498;-71
2024/01/25 02:20:36;;;;;;;6.07;1.75;;;;;;;4.75;100.00;101380.69;5068681;28;20049;-70
2024/01/25 02:23:03;;;;;;;9.05;1.70;;;;;;;4.73;100.00;101368.59;5076591;28;20052;-71
2024/01/25 02:25:30;;;;;;;6.95;1.52;;;;;;;4.83;100.00;101382.41;5069888;28;20473;-71
2024/01/25 02:27:57;;;;;;;9.05;1.77;;;;;;;4.82;100.00;101362.53;5063161;28;20083;-71
2024/01/25 02:30:24;;;;;;;6.20;1.73;;;;;;;4.83;100.00;101366.81;5071210;28;20673;-71
2024/01/25 02:32:51;;;;;;;6.63;1.58;;;;;;;4.78;100.00;101368.56;5074710;28;20378;-71
2024/01/25 02:35:18;;;;;;;7.57;1.83;;;;;;;4.85;100.00;101372.88;5056791;28;20048;-71
2024/01/25 02:37:45;;;;;;;9.07;1.67;;;;;;;4.83;100.00;101356.44;5080770;28;20052;-71
2024/01/25 02:40:12;;;;;;;10.25;2.22;;;;;;;4.81;100.00;101348.66;5074562;28;20048;-71
2024/01/25 02:42:39;;;;;;;8.63;2.00;;;;;;;4.81;100.00;101356.44;5077884;28;20059;-71
2024/01/25 02:45:06;;;;;;;5.43;1.52;;;;;;;4.86;100.00;101379.81;5078933;28;20048;-70
2024/01/25 02:47:33;;;;;;;5.60;1.60;;;;;;;4.83;100.00;101391.03;5070179;28;20041;-71
2024/01/25 02:50:00;;;;;;;5.43;1.40;;;;;;;4.68;100.00;101376.38;5071985;28;20052;-70
2024/01/25 02:52:27;;;;;;;5.07;1.67;;;;;;;4.69;100.00;101361.69;5069215;28;20164;-71
2024/01/25 02:54:53;;;;;;;6.28;2.58;;;;;;;4.71;100.00;101378.09;5077867;28;20097;-71
2024/01/25 02:57:20;;;;;;;10.02;1.98;;;;;;;4.68;100.00;101381.59;5070857;28;20056;-71
2024/01/25 02:59:47;;;;;;;9.82;1.83;;;;;;;4.72;100.00;101385.88;5068939;28;20048;-71
2024/01/25 03:02:13;;;;;;;7.57;1.65;;;;;;;4.73;100.00;101378.97;5071167;28;20051;-70
2024/01/25 03:04:40;;;;;;;5.60;1.60;;;;;;;4.82;100.00;101373.75;5069886;28;20048;-71
2024/01/25 03:07:07;;;;;;;11.35;1.80;;;;;;;4.80;100.00;101372.03;5072801;28;20460;-70
2024/01/25 03:09:34;;;;;;;11.75;1.73;;;;;;;4.74;100.00;101370.31;5051858;28;20048;-70
2024/01/25 03:12:01;;;;;;;6.53;1.90;;;;;;;4.83;100.00;101375.47;5095423;28;20052;-71
2024/01/25 03:14:27;;;;;;;9.35;1.67;;;;;;;4.82;100.00;101388.47;5072173;28;20048;-70
2024/01/25 03:16:54;;;;;;;7.07;1.90;;;;;;;4.74;100.00;101396.25;5071404;28;20056;-71
2024/01/25 03:19:24;;;;;;;8.57;1.77;;;;;;;4.78;100.00;101402.31;5065450;28;20083;-71
2024/01/25 03:21:52;;;;;;;6.47;1.67;;;;;;;4.79;100.00;101401.44;5066022;28;20052;-71
2024/01/25 03:24:18;;;;;;;12.60;2.50;;;;;;;4.93;100.00;101391.88;5066367;28;20829;-71
2024/01/25 03:26:45;;;;;;;9.82;2.20;;;;;;;4.83;100.00;101369.41;5067649;28;20044;-70
2024/01/25 03:29:12;;;;;;;9.50;1.98;;;;;;;4.89;100.00;101379.78;5066285;28;20422;-70
2024/01/25 03:31:39;;;;;;;9.35;1.98;;;;;;;4.94;100.00;101378.91;5069114;28;20052;-72
2024/01/25 03:34:05;;;;;;;4.78;1.55;;;;;;;4.91;100.00;101384.09;5056731;28;20083;-70
2024/01/25 03:36:32;;;;;;;7.43;1.70;;;;;;;4.90;100.00;101387.53;5071370;28;20044;-72
2024/01/25 03:38:59;;;;;;;8.25;2.08;;;;;;;4.84;100.00;101385.00;5057732;28;20044;-71
2024/01/25 03:41:26;;;;;;;5.40;1.55;;;;;;;4.85;100.00;101380.66;5063901;28;20063;-71
2024/01/25 03:43:53;;;;;;;5.30;1.88;;;;;;;4.74;100.00;101363.38;5070508;28;20414;-71
2024/01/25 03:46:20;;;;;;;6.53;2.10;;;;;;;4.80;100.00;101352.16;5066037;28;20064;-71
2024/01/25 03:48:47;;;;;;;10.02;2.17;;;;;;;4.73;100.00;101343.53;5066561;28;20060;-72
2024/01/25 03:51:13;;;;;;;8.93;2.25;;;;;;;4.82;100.00;101340.03;5058501;28;20057;-71
2024/01/25 03:53:42;;;;;;;7.28;1.90;;;;;;;4.80;100.00;101344.38;5069489;28;20048;-71
2024/01/25 03:56:13;;;;;;;7.50;2.22;;;;;;;4.83;100.00;101357.31;5076106;28;20521;-72
2024/01/25 03:58:39;;;;;;;6.40;1.50;;;;;;;4.78;100.00;101342.63;5070882;28;20056;-71
2024/01/25 04:01:06;;;;;;;10.25;2.22;;;;;;;4.72;100.00;101352.16;5061402;28;20512;-72
2024/01/25 04:03:33;;;;;;;8.68;2.20;;;;;;;4.46;100.00;101308.19;5061044;28;20131;-70
2024/01/25 04:06:00;;;;;;;14.20;2.70;;;;;;;4.67;100.00;101334.88;5085692;28;20053;-71
2024/01/25 04:08:26;;;;;;;9.75;2.20;;;;;;;4.75;100.00;101321.03;5049336;28;20120;-70
2024/01/25 04:10:53;;;;;;;10.05;2.03;;;;;;;4.72;100.00;101299.41;5061397;28;20049;-70
2024/01/25 04:13:20;;;;;;;12.43;2.33;;;;;;;4.78;100.00;101306.31;5063752;28;20411;-70
2024/01/25 04:15:46;;;;;;;9.00;2.20;;;;;;;4.89;100.00;101314.94;5053208;28;20061;-71
2024/01/25 04:18:13;;;;;;;6.03;1.77;;;;;;;4.86;100.00;101296.75;5051905;28;20045;-71
2024/01/25 04:20:41;;;;;;;11.10;2.30;;;;;;;4.92;100.00;101300.19;5054352;28;20084;-71
2024/01/25 04:23:08;;;;;;;6.78;1.70;;;;;;;4.87;100.00;101303.66;5068019;28;20051;-71
2024/01/25 04:25:35;;;;;;;6.50;1.98;;;;;;;4.71;100.00;101293.38;5074066;28;20059;-71
2024/01/25 04:28:02;;;;;;;8.10;1.88;;;;;;;4.67;100.00;101298.56;5068735;28;20309;-71
2024/01/25 04:30:30;;;;;;;5.20;1.75;;;;;;;4.72;100.00;101300.28;5076842;28;20051;-71
2024/01/25 04:32:58;;;;;;;11.68;1.90;;;;;;;4.74;100.00;101306.31;5077778;28;20098;-71
2024/01/25 04:35:24;;;;;;;6.55;1.80;;;;;;;4.72;100.00;101299.41;5077858;28;20512;-70
2024/01/25 04:37:51;;;;;;;9.43;1.90;;;;;;;4.76;100.00;101288.16;5084544;28;20052;-70
2024/01/25 04:40:19;;;;;;;8.50;1.95;;;;;;;4.68;100.00;101283.00;5067440;28;20052;-71
2024/01/25 04:42:46;;;;;;;8.15;1.80;;;;;;;4.68;100.00;101274.38;5069634;28;20114;-70
2024/01/25 04:45:12;;;;;;;6.25;1.90;;;;;;;4.67;100.00;101277.81;5074380;28;20093;-70
2024/01/25 04:47:39;;;;;;;5.47;1.65;;;;;;;4.68;100.00;101270.03;5071055;28;20049;-71
2024/01/25 04:50:06;;;;;;;5.55;1.67;;;;;;;4.63;100.00;101274.38;5067646;28;20052;-71
2024/01/25 04:52:33;;;;;;;5.32;1.63;;;;;;;4.58;100.00;101265.75;5073285;28;20389;-71
2024/01/25 04:55:00;;;;;;;4.65;1.40;;;;;;;4.53;100.00;101255.41;5070933;28;20048;-71
2024/01/25 04:57:27;;;;;;;8.20;2.90;;;;;;;4.60;100.00;101250.19;5062624;28;20482;-71
2024/01/25 04:59:53;;;;;;;6.03;1.70;;;;;;;4.51;100.00;101241.56;5069631;28;20513;-71
2024/01/25 05:02:20;;;;;;;8.23;1.80;;;;;;;4.60;100.00;101239.81;5060965;28;20060;-70
2024/01/25 05:04:47;;;;;;;8.57;3.33;;;;;;;4.44;100.00;101198.38;5062995;28;20098;-71
2024/01/25 05:07:14;;;;;;;6.60;1.58;;;;;;;4.63;100.00;101230.28;5067967;28;20048;-71
2024/01/25 05:09:40;;;;;;;5.97;1.40;;;;;;;4.64;100.00;101225.94;5062198;28;20714;-71
2024/01/25 05:12:07;;;;;;;7.97;1.80;;;;;;;4.56;100.00;101232.03;5063733;28;20739;-71
2024/01/25 05:14:34;;;;;;;9.02;2.63;;;;;;;4.48;100.00;101231.22;5065927;28;20061;-71
2024/01/25 05:17:01;;;;;;;7.28;1.88;;;;;;;4.43;100.00;101229.53;5067244;28;20044;-71
2024/01/25 05:19:27;;;;;;;10.55;2.28;;;;;;;4.28;100.00;101201.94;5063833;28;20048;-70
2024/01/25 05:21:55;;;;;;;7.15;1.95;;;;;;;4.41;100.00;101211.38;5071559;28;20052;-70
2024/01/25 05:24:22;;;;;;;7.35;1.95;;;;;;;4.50;100.00;101210.50;5077872;28;20087;-70
2024/01/25 05:26:48;;;;;;;9.27;1.88;;;;;;;4.46;100.00;101198.38;5069070;28;20067;-71
2024/01/25 05:29:16;;;;;;;8.43;1.80;;;;;;;4.54;100.00;101199.22;5071360;28;20052;-71
2024/01/25 05:31:43;;;;;;;8.32;1.80;;;;;;;4.45;100.00;101200.13;5059958;28;20501;-71
2024/01/25 05:34:10;;;;;;;9.80;1.70;;;;;;;4.62;100.00;101200.06;5075649;28;20048;-71
2024/01/25 05:36:37;;;;;;;9.52;1.90;;;;;;;4.72;100.00;101193.91;5058916;28;20441;-71
2024/01/25 05:39:06;;;;;;;11.90;3.13;;;;;;;4.64;100.00;101200.00;5059288;28;20247;-71
2024/01/25 05:41:33;;;;;;;9.10;1.92;;;;;;;4.60;100.00;101162.00;5089713;28;20059;-71
2024/01/25 05:44:00;;;;;;;8.85;2.20;;;;;;;4.64;100.00;101179.25;5069272;28;20050;-72
2024/01/25 05:46:27;;;;;;;8.55;2.00;;;;;;;4.65;100.00;101176.66;5081524;28;20055;-71
2024/01/25 05:48:54;;;;;;;10.05;2.75;;;;;;;4.59;100.00;101173.28;5066988;28;20044;-71
2024/01/25 05:51:21;;;;;;;11.05;2.60;;;;;;;4.69;100.00;101173.19;5069199;28;20080;-71
2024/01/25 05:53:47;;;;;;;13.73;2.83;;;;;;;4.80;100.00;101165.34;5051466;28;20463;-71
2024/01/25 05:56:14;;;;;;;20.58;3.80;;;;;;;4.82;100.00;101162.75;5062737;28;20054;-71
2024/01/25 05:58:41;;;;;;;15.00;2.90;;;;;;;4.93;100.00;101151.41;5066337;28;20043;-71
2024/01/25 06:01:07;;;;;;;13.45;3.00;;;;;;;5.10;100.00;101159.06;5070625;28;20055;-71
2024/01/25 06:03:34;;;;;;;16.63;3.22;;;;;;;5.02;100.00;101157.41;5082398;28;20569;-71
2024/01/25 06:06:01;;;;;;;15.32;2.80;;;;;;;5.10;100.00;101155.63;5060206;28;20049;-71
2024/01/25 06:08:28;;;;;;;13.38;2.63;;;;;;;5.08;100.00;101162.53;5057410;28;20056;-72
2024/01/25 06:10:55;;;;;;;16.17;2.95;;;;;;;5.00;100.00;101164.34;5067755;28;20085;-71
2024/01/25 06:13:21;;;;;;;15.07;3.35;;;;;;;5.02;100.00;101166.03;5070010;28;20127;-71
2024/01/25 06:15:48;;;;;;;13.82;3.55;;;;;;;5.12;100.00;101170.28;5059075;28;20160;-71
2024/01/25 06:18:15;;;;;;;17.25;3.60;;;;;;;5.19;100.00;101155.53;5059245;28;20072;-71
2024/01/25 06:20:41;;;;;;;18.25;3.08;;;;;;;5.11;100.00;101152.97;5071201;28;20077;-71
2024/01/25 06:23:08;;;;;;;16.23;3.42;;;;;;;5.19;100.00;101149.44;5086424;28;20048;-71
2024/01/25 06:25:36;;;;;;;12.82;3.42;;;;;;;5.16;100.00;101145.16;5083880;28;20052;-71
2024/01/25 06:28:03;;;;;;;13.07;2.50;;;;;;;5.21;100.00;101152.91;5070910;28;20565;-71
2024/01/25 06:30:30;;;;;;;12.90;2.67;;;;;;;5.18;100.00;101155.53;5068599;28;20463;-70
2024/01/25 06:32:57;;;;;;;12.13;2.38;;;;;;;5.10;100.00;101159.06;5072819;28;20736;-70
2024/01/25 06:35:24;;;;;;;13.43;2.75;;;;;;;5.12;100.00;101164.25;5066026;28;20063;-70
2024/01/25 06:37:50;;;;;;;17.55;4.50;;;;;;;5.21;100.00;101147.72;5069726;28;20051;-70
2024/01/25 06:40:17;;;;;;;16.13;4.15;;;;;;;5.22;100.00;101154.63;5059741;28;20136;-70
2024/01/25 06:42:44;;;;;;;12.65;2.50;;;;;;;5.29;100.00;101146.78;5066742;28;20417;-71
2024/01/25 06:45:11;;;;;;;13.15;2.90;;;;;;;5.25;100.00;101139.88;5060085;28;20410;-71
2024/01/25 06:47:38;;;;;;;9.30;2.47;;;;;;;5.31;100.00;101147.63;5055704;28;20493;-71
2024/01/25 06:50:05;;;;;;;9.40;2.10;;;;;;;5.29;100.00;101145.91;5067538;28;20470;-70
2024/01/25 06:52:33;;;;;;;10.07;2.42;;;;;;;5.22;100.00;101136.44;5053283;28;20049;-71
2024/01/25 06:55:00;;;;;;;10.05;2.17;;;;;;;5.25;100.00;101142.47;5072058;28;20444;-71
2024/01/25 06:57:27;;;;;;;10.93;2.20;;;;;;;5.31;100.00;101131.16;5079581;28;20051;-71
2024/01/25 06:59:53;;;;;;;15.43;2.85;;;;;;;5.26;100.00;101122.59;5070853;28;20379;-71
2024/01/25 07:02:20;;;;;;;13.60;3.10;;;;;;;5.24;100.00;101111.34;5070020;28;20051;-71
2024/01/25 07:04:48;;;;;;;16.35;2.55;;;;;;;5.33;100.00;101116.47;5067907;28;20398;-71
2024/01/25 07:07:15;;;;;;;18.58;3.70;;;;;;;5.26;100.00;101102.66;5063413;28;20041;-71
2024/01/25 07:09:42;;;;;;;13.07;2.83;;;;;;;5.37;100.00;101089.56;5054364;28;20499;-71
2024/01/25 07:12:08;;;;;;;23.05;4.85;;;;;;;5.43;100.00;101091.25;5060600;28;20576;-70
2024/01/25 07:14:35;;;;;;;19.90;4.70;;;;;;;5.51;100.00;101089.44;5064744;28;20053;-71
2024/01/25 07:17:03;;;;;;;17.63;3.05;;;;;;;5.57;100.00;101085.91;5059646;28;20463;-71
2024/01/25 07:19:30;;;;;;;9.38;2.97;;;;;;;5.63;100.00;101081.50;5060876;28;20509;-71
2024/01/25 07:21:57;;;;;;;12.05;3.67;;;;;;;5.62;100.00;101087.56;5068617;28;20134;-72
2024/01/25 07:24:26;;;;;;;17.75;4.93;;;;;;;5.69;100.00;101084.00;5062644;28;20082;-72
2024/01/25 07:26:52;;;;;;;20.10;4.63;;;;;;;5.67;100.00;101072.78;5058513;28;20056;-71
2024/01/25 07:29:22;;;;;;;22.52;4.68;;;;;;;5.77;100.00;101081.34;5064544;28;20052;-71
2024/01/25 07:31:48;;;;;;;21.23;4.80;;;;;;;5.60;100.00;101068.53;5055185;28;20426;-71
2024/01/25 07:34:15;;;;;;;18.38;5.03;;;;;;;5.75;100.00;101077.03;5060475;28;20048;-71
2024/01/25 07:36:43;;;;;;;22.88;4.57;;;;;;;5.88;100.00;101083.81;5063276;28;20519;-71
2024/01/25 07:39:11;;;;;;;20.92;5.07;;;;;;;5.81;100.00;101075.22;5060769;28;20044;-71
2024/01/25 07:41:38;;;;;;;15.95;3.67;;;;;;;5.92;100.00;101085.47;5055776;28;20057;-71
2024/01/25 07:44:05;;;;;;;20.45;4.25;;;;;;;5.79;100.00;101076.97;5065738;28;20500;-71
2024/01/25 07:46:32;;;;;;;24.85;5.32;;;;;;;5.64;100.00;101070.22;5070346;28;20044;-71
2024/01/25 07:48:59;;;;;;;17.65;4.32;;;;;;;5.81;100.00;101074.38;5065864;28;20072;-71
2024/01/25 07:51:28;;;;;;;18.63;4.05;;;;;;;5.90;100.00;101064.69;5066975;28;20049;-71
2024/01/25 07:53:55;;;;;;;14.38;3.55;;;;;;;5.86;100.00;101063.03;5069627;28;20055;-71
2024/01/25 07:56:22;;;;;;;17.38;4.30;;;;;;;5.92;100.00;101048.25;5067433;28;20387;-71
2024/01/25 07:58:49;;;;;;;29.27;21.08;;;;;;;5.88;100.00;101052.63;5054933;28;20084;-73
2024/01/25 08:01:19;;;;;;;21.85;5.63;;;;;;;5.81;100.00;101051.84;5072572;28;20295;-72
2024/01/25 08:03:46;;;;;;;17.40;4.82;;;;;;;5.75;100.00;101057.09;5065513;28;20044;-72
2024/01/25 08:06:13;;;;;;;24.77;4.40;;;;;;;5.56;100.00;101040.00;5065863;28;20044;-72
2024/01/25 08:08:40;;;;;;;22.00;5.53;;;;;;;5.75;100.00;101046.69;5067172;28;20041;-72
2024/01/25 08:11:08;;;;;;;16.10;3.65;;;;;;;5.79;100.00;101043.22;5067011;28;20099;-72
2024/01/25 08:13:34;;;;;;;16.40;3.78;;;;;;;5.84;100.00;101057.00;5054974;28;20051;-72
2024/01/25 08:16:02;;;;;;;15.13;4.07;;;;;;;5.73;100.00;101035.47;5059189;28;20131;-72
2024/01/25 08:18:29;;;;;;;27.05;5.25;;;;;;;5.73;100.00;101032.03;5066941;28;20106;-72
2024/01/25 08:20:57;;;;;;;25.00;4.35;;;;;;;5.81;100.00;101025.84;5066967;28;20578;-72
2024/01/25 08:23:24;;;;;;;18.88;4.47;;;;;;;5.74;100.00;101005.16;5067210;28;20052;-72
2024/01/25 08:25:51;;;;;;;26.00;5.30;;;;;;;5.76;100.00;101004.25;5067648;28;20056;-68
2024/01/25 08:28:17;;;;;;;18.88;5.63;;;;;;;5.93;100.00;100984.97;5055248;28;20051;-68
2024/01/25 08:30:44;;;;;;;16.92;3.78;;;;;;;6.03;100.00;101002.19;5057064;28;20052;-68
2024/01/25 08:33:11;;;;;;;17.67;5.85;;;;;;;6.04;100.00;101003.91;5055081;28;20075;-68
2024/01/25 08:35:39;;;;;;;10.98;2.90;;;;;;;6.15;100.00;100999.41;5059135;28;20049;-68
2024/01/25 08:38:06;;;;;;;16.70;3.47;;;;;;;6.11;100.00;100992.53;5052816;28;20049;-68
2024/01/25 08:40:33;;;;;;;21.23;4.95;;;;;;;6.15;100.00;100978.59;5066751;28;20695;-68
2024/01/25 08:43:00;;;;;;;15.77;4.43;;;;;;;6.04;100.00;100959.72;5063521;28;20091;-68
2024/01/25 08:45:27;;;;;;;16.23;3.47;;;;;;;6.03;100.00;100951.06;5064874;28;20091;-68
2024/01/25 08:47:55;;;;;;;15.50;3.72;;;;;;;6.16;100.00;100946.53;5062691;28;20068;-68
2024/01/25 08:50:22;;;;;;;10.07;2.83;;;;;;;6.21;100.00;100936.91;5067405;28;20048;-68
2024/01/25 08:52:52;;;;;;;12.98;2.80;;;;;;;6.00;100.00;100898.25;5074483;28;20499;-68
2024/01/25 08:55:19;;;;;;;11.50;3.65;;;;;;;6.22;100.00;100922.19;5065845;28;20055;-68
2024/01/25 08:57:46;;;;;;;10.90;2.75;;;;;;;6.24;100.00;100907.41;5062372;28;20237;-68
2024/01/25 09:00:14;;;;;;;9.88;2.78;;;;;;;6.25;100.00;100915.19;5059474;28;20070;-68
2024/01/25 09:02:41;;;;;;;11.60;2.85;;;;;;;6.27;100.00;100933.38;5052447;28;20477;-68
2024/01/25 09:05:08;;;;;;;11.73;4.15;;;;;;;6.29;100.00;100917.75;5065021;28;20735;-68
2024/01/25 09:07:35;;;;;;;18.15;2.58;;;;;;;6.25;100.00;100911.69;5054416;28;20055;-68
2024/01/25 09:10:04;;;;;;;14.40;2.80;;;;;;;6.34;100.00;100921.09;5060616;28;20101;-69
2024/01/25 09:12:31;;;;;;;12.57;2.50;;;;;;;6.30;100.00;100922.88;5050736;28;20061;-69
2024/01/25 09:14:58;;;;;;;8.90;2.25;;;;;;;6.34;100.00;100931.50;5058264;28;20048;-68
2024/01/25 09:17:25;;;;;;;16.02;3.47;;;;;;;6.22;100.00;100945.56;5067163;28;20056;-68
2024/01/25 09:19:51;;;;;;;12.13;3.25;;;;;;;6.32;100.00;100934.16;5066367;28;20051;-68
2024/01/25 09:22:19;;;;;;;13.57;3.45;;;;;;;6.20;100.00;100932.59;5057719;28;20471;-68
2024/01/25 09:24:46;;;;;;;14.35;3.15;;;;;;;6.14;100.00;100918.84;5068620;28;20055;-68
2024/01/25 09:27:14;;;;;;;18.17;3.88;;;;;;;6.17;100.00;100927.44;5063989;28;20054;-68
2024/01/25 09:29:42;;;;;;;13.10;3.22;;;;;;;6.13;100.00;100896.34;5069935;28;20048;-68
2024/01/25 09:32:09;;;;;;;15.07;3.55;;;;;;;6.06;100.00;100890.38;5060733;28;20056;-68
2024/01/25 09:34:37;;;;;;;19.02;3.65;;;;;;;6.26;100.00;100898.69;5068500;28;20505;-68
2024/01/25 09:37:06;;;;;;;21.95;4.68;;;;;;;6.07;100.00;100903.34;5061407;28;20080;-68
2024/01/25 09:39:35;;;;;;;15.45;3.63;;;;;;;6.36;100.00;100899.38;5063864;28;20048;-68
2024/01/25 09:42:05;;;;;;;16.30;4.72;;;;;;;6.32;100.00;100876.94;5060159;28;20053;-68
2024/01/25 09:44:33;;;;;;;15.48;3.60;;;;;;;6.38;100.00;100866.41;5072138;28;20083;-68
2024/01/25 09:47:05;;;;;;;14.90;4.60;;;;;;;6.43;100.00;100858.53;5069955;28;20131;-68
2024/01/25 09:49:32;;;;;;;19.75;3.97;;;;;;;6.62;100.00;100846.91;5066917;28;20055;-68
2024/01/25 09:52:03;;;;;;;16.15;3.10;;;;;;;6.59;100.00;100822.69;5070214;28;20476;-67
2024/01/25 09:54:36;;;;;;;13.63;3.38;;;;;;;6.69;100.00;100821.59;5069797;28;20434;-68
2024/01/25 09:57:08;;;;;;;14.57;3.63;;;;;;;6.76;100.00;100817.13;5056099;28;20036;-68
2024/01/25 09:59:35;;;;;;;20.33;4.00;;;;;;;6.60;100.00;100821.78;5067518;28;20083;-68
2024/01/25 10:02:02;;;;;;;25.73;5.55;;;;;;;6.69;100.00;100805.97;5050796;28;20489;-68
2024/01/25 10:04:29;;;;;;;25.88;4.10;;;;;;;6.59;100.00;100794.91;5049564;28;20453;-68
2024/01/25 10:06:57;;;;;;;20.25;3.78;;;;;;;6.73;100.00;100771.22;5060097;28;20124;-68
2024/01/25 10:09:24;;;;;;;27.08;5.25;;;;;;;6.71;100.00;100793.81;5055307;28;20433;-68
2024/01/25 10:11:50;;;;;;;22.58;5.18;;;;;;;6.62;100.00;100758.44;5055035;28;20391;-68
2024/01/25 10:14:35;;;;;;;22.67;5.05;;;;;;;6.93;100.00;100762.97;5073027;28;20168;-68
2024/01/25 10:17:02;;;;;;;28.67;5.30;;;;;;;6.92;100.00;100757.78;5067431;28;20391;-67
2024/01/25 10:19:29;;;;;;;22.98;4.80;;;;;;;6.94;100.00;100764.69;5064131;28;20036;-67
2024/01/25 10:21:57;;;;;;;22.70;5.53;;;;;;;6.97;100.00;100754.19;5066316;28;20130;-68
2024/01/25 10:24:24;;;;;;;26.27;5.03;;;;;;;7.19;100.00;100769.34;5052573;28;20052;-68
2024/01/25 10:26:51;;;;;;;28.55;6.15;;;;;;;7.05;100.00;100759.25;5066164;28;20052;-68
2024/01/25 10:29:18;;;;;;;25.23;5.13;;;;;;;7.14;100.00;100756.41;5066843;28;20363;-68
2024/01/25 10:31:45;;;;;;;28.00;4.93;;;;;;;7.33;100.00;100738.63;5058866;28;20430;-68
2024/01/25 10:34:15;;;;;;;34.08;6.93;;;;;;;7.31;100.00;100730.00;5067144;28;20040;-67
2024/01/25 10:36:42;;;;;;;27.58;5.20;;;;;;;7.51;100.00;100733.84;5066147;28;20071;-68
2024/01/25 10:39:11;;;;;;;36.30;7.03;;;;;;;7.51;100.00;100726.88;5066102;28;20074;-68
2024/01/25 10:41:38;;;;;;;20.65;5.18;;;;;;;7.78;100.00;100734.91;5067401;28;20406;-68
2024/01/25 10:44:06;;;;;;;27.63;4.93;;;;;;;7.89;100.00;100740.66;5062531;28;20136;-68
2024/01/25 10:46:34;;;;;;;28.58;5.65;;;;;;;7.88;100.00;100733.75;5055000;28;20665;-68
2024/01/25 10:49:01;;;;;;;23.88;6.18;;;;;;;7.89;100.00;100722.41;5056675;28;20044;-68
2024/01/25 10:51:30;;;;;;;23.52;4.38;;;;;;;8.09;100.00;100715.81;5060299;28;20056;-68
2024/01/25 10:53:58;;;;;;;22.83;6.55;;;;;;;7.96;100.00;100720.50;5060987;28;20052;-68
2024/01/25 10:56:25;;;;;;;25.17;5.68;;;;;;;8.04;100.00;100700.31;5059899;28;20053;-68
2024/01/25 10:58:53;;;;;;;38.35;5.97;;;;;;;8.04;100.00;100687.28;5052120;28;20093;-68
2024/01/25 11:01:19;;;;;;;32.78;5.63;;;;;;;8.35;100.00;100662.91;5070803;28;20049;-68
2024/01/25 11:03:46;;;;;;;22.38;5.80;;;;;;;7.94;100.00;100657.97;5062353;28;20076;-68
2024/01/25 11:06:14;;;;;;;26.85;5.78;;;;;;;7.95;100.00;100618.00;5058689;28;20051;-68
2024/01/25 11:08:41;;;;;;;25.42;4.80;;;;;;;7.94;100.00;100607.59;5063734;28;20152;-68
2024/01/25 11:11:12;;;;;;;24.98;5.75;;;;;;;8.01;100.00;100610.88;5065130;28;20467;-68
2024/01/25 11:13:40;;;;;;;27.45;6.93;;;;;;;7.70;100.00;100622.16;5064147;28;20060;-68
2024/01/25 11:16:17;;;;;;;33.05;6.03;;;;;;;7.67;100.00;100635.31;5060202;28;20052;-68
2024/01/25 11:19:20;;;;;;;26.10;4.57;;;;;;;8.03;100.00;100653.41;5073683;28;20068;-67
2024/01/25 11:21:49;;;;;;;21.23;4.68;;;;;;;7.91;100.00;100647.63;5061642;28;20048;-67